Time;durP1;ratioP1;P1;durP2;ratioP2;P2;SDS_P1;SDS_P2;PMS_P1;PMS_P2;Temp;Humidity;BMP_temperature;BMP_pressure;BME280_temperature;BME280_humidity;BME280_pressure;Samples;Min_cycle;Max_cycle;Signal;HPM_P1;HPM_P2
2023/12/22 00:02:25;;;;;;;;;;;;;;;12.25;67.05;100681.66;7293672;19;19953;-66
2023/12/22 00:04:52;;;;;;;;;;;;;;;12.25;67.01;100694.84;7321653;19;21731;-66
2023/12/22 00:07:20;;;;;;;;;;;;;;;12.25;67.25;100679.00;7304655;19;19930;-66
2023/12/22 00:09:47;;;;;;;;;;;;;;;12.23;67.23;100688.09;7299325;19;20202;-70
2023/12/22 00:12:14;;;;;;;;;;;;;;;12.21;67.03;100688.25;7287541;19;19918;-68
2023/12/22 00:14:41;;;;;;;;;;;;;;;12.22;67.45;100683.81;7293338;19;19926;-66
2023/12/22 00:17:08;;;;;;;;;;;;;;;12.20;67.38;100685.78;7296784;19;21324;-67
2023/12/22 00:19:35;;;;;;;;;;;;;;;12.21;67.84;100684.78;7287315;19;19915;-67
2023/12/22 00:22:03;;;;;;;;;;;;;;;12.20;67.88;100683.13;7303166;19;19914;-66
2023/12/22 00:24:30;;;;;;;;;;;;;;;12.19;68.09;100681.50;7289587;19;19923;-68
2023/12/22 00:26:57;;;;;;;;;;;;;;;12.17;68.61;100679.03;7289809;19;20342;-69
2023/12/22 00:29:24;;;;;;;;;;;;;;;12.19;68.57;100674.41;7294476;19;19951;-66
2023/12/22 00:31:51;;;;;;;;;;;;;;;12.19;69.31;100673.59;7293199;19;19956;-69
2023/12/22 00:34:19;;;;;;;;;;;;;;;12.19;68.76;100671.75;7299099;19;20587;-66
2023/12/22 00:36:46;;;;;;;;;;;;;;;12.20;68.56;100672.59;7285365;19;20022;-68
2023/12/22 00:39:13;;;;;;;;;;;;;;;12.18;69.14;100675.41;7298010;19;19911;-67
2023/12/22 00:41:40;;;;;;;;;;;;;;;12.17;69.17;100679.03;7290610;19;19994;-66
2023/12/22 00:44:07;;;;;;;;;;;;;;;12.20;69.52;100688.41;7305734;19;19992;-66
2023/12/22 00:46:33;;;;;;;;;;;;;;;12.18;69.61;100680.69;7300153;19;19994;-66
2023/12/22 00:49:00;;;;;;;;;;;;;;;12.19;70.30;100690.22;7291229;19;19942;-67
2023/12/22 00:51:27;;;;;;;;;;;;;;;12.21;70.39;100693.53;7293907;19;19923;-68
2023/12/22 00:53:56;;;;;;;;;;;;;;;12.19;69.82;100694.69;7298558;19;19918;-67
2023/12/22 00:56:23;;;;;;;;;;;;;;;12.20;70.70;100698.97;7294118;19;20951;-66
2023/12/22 00:58:50;;;;;;;;;;;;;;;12.20;70.74;100707.69;7296609;19;20521;-67
2023/12/22 01:01:27;;;;;;;;;;;;;;;12.21;70.74;100704.09;7294194;19;20754;-66
2023/12/22 01:03:54;;;;;;;;;;;;;;;12.23;70.90;100707.38;7303312;19;20737;-69
2023/12/22 01:06:21;;;;;;;;;;;;;;;12.26;71.78;100700.94;7314613;19;19922;-66
2023/12/22 01:08:53;;;;;;;;;;;;;;;12.29;72.74;100703.25;7307396;19;20003;-68
2023/12/22 01:11:19;;;;;;;;;;;;;;;12.29;72.27;100714.63;7297347;19;19925;-67
2023/12/22 01:13:46;;;;;;;;;;;;;;;12.31;72.00;100710.00;7286140;19;20003;-67
2023/12/22 01:16:15;;;;;;;;;;;;;;;12.32;71.99;100701.09;7286106;19;19963;-66
2023/12/22 01:18:46;;;;;;;;;;;;;;;12.34;71.92;100691.19;7291823;19;21327;-67
2023/12/22 01:21:16;;;;;;;;;;;;;;;12.36;72.61;100697.13;7283823;19;19933;-67
2023/12/22 01:23:42;;;;;;;;;;;;;;;12.37;72.80;100693.50;7290961;19;19922;-68
2023/12/22 01:26:09;;;;;;;;;;;;;;;12.36;73.08;100696.31;7298839;19;20618;-67
2023/12/22 01:28:38;;;;;;;;;;;;;;;12.36;74.09;100705.06;7297198;19;19941;-66
2023/12/22 01:31:10;;;;;;;;;;;;;;;12.40;74.78;100709.00;7300202;19;19919;-67
2023/12/22 01:33:37;;;;;;;;;;;;;;;12.40;75.06;100706.34;7287131;19;19926;-65
2023/12/22 01:36:04;;;;;;;;;;;;;;;12.43;75.29;100702.56;7297449;19;20011;-67
2023/12/22 01:38:31;;;;;;;;;;;;;;;12.47;76.01;100709.16;7293436;19;19922;-66
2023/12/22 01:40:58;;;;;;;;;;;;;;;12.48;76.72;100702.06;7295840;19;19925;-68
2023/12/22 01:43:25;;;;;;;;;;;;;;;12.52;76.88;100701.56;7301856;19;20467;-67
2023/12/22 01:45:54;;;;;;;;;;;;;;;12.54;77.03;100690.84;7300632;19;19923;-68
2023/12/22 01:48:23;;;;;;;;;;;;;;;12.58;78.41;100695.63;7288140;19;19911;-67
2023/12/22 01:50:53;;;;;;;;;;;;;;;12.60;78.27;100698.06;7290341;19;20750;-68
2023/12/22 01:53:20;;;;;;;;;;;;;;;12.63;78.51;100705.66;7295661;19;19918;-67
2023/12/22 01:55:48;;;;;;;;;;;;;;;12.62;78.87;100698.72;7280199;19;20696;-67
2023/12/22 01:58:15;;;;;;;;;;;;;;;12.64;79.64;100694.94;7299240;19;19918;-65
2023/12/22 02:00:42;;;;;;;;;;;;;;;12.60;79.48;100700.69;7297429;19;19915;-66
2023/12/22 02:03:09;;;;;;;;;;;;;;;12.59;79.77;100702.53;7296539;19;19926;-67
2023/12/22 02:05:36;;;;;;;;;;;;;;;12.61;80.80;100712.91;7289612;19;19919;-66
2023/12/22 02:08:03;;;;;;;;;;;;;;;12.64;80.76;100723.97;7290597;19;19915;-67
2023/12/22 02:10:30;;;;;;;;;;;;;;;12.65;81.01;100716.84;7296627;19;19969;-67
2023/12/22 02:12:57;;;;;;;;;;;;;;;12.66;81.65;100721.97;7301345;19;19932;-66
2023/12/22 02:15:24;;;;;;;;;;;;;;;12.65;82.25;100712.41;7284546;19;19923;-66
2023/12/22 02:17:55;;;;;;;;;;;;;;;12.60;83.01;100729.75;7285366;19;20846;-65
2023/12/22 02:20:22;;;;;;;;;;;;;;;12.63;83.48;100732.88;7311421;19;22225;-67
2023/12/22 02:22:52;;;;;;;;;;;;;;;12.65;84.24;100730.88;7304244;19;19918;-65
2023/12/22 02:25:20;;;;;;;;;;;;;;;12.67;86.84;100738.63;7280206;19;19982;-66
2023/12/22 02:27:46;;;;;;;;;;;;;;;12.67;88.00;100741.28;7295500;19;20693;-66
2023/12/22 02:30:20;;;;;;;;;;;;;;;12.63;89.32;100737.34;7290660;19;19918;-67
2023/12/22 02:32:48;;;;;;;;;;;;;;;12.58;90.64;100731.75;7281908;19;20002;-66
2023/12/22 02:35:20;;;;;;;;;;;;;;;12.55;92.15;100734.69;7301662;19;20308;-66
2023/12/22 02:37:52;;;;;;;;;;;;;;;12.53;92.34;100726.13;7290396;19;21761;-66
2023/12/22 02:40:20;;;;;;;;;;;;;;;12.49;93.10;100709.00;7299057;19;20642;-64
2023/12/22 02:42:47;;;;;;;;;;;;;;;12.43;94.16;100706.03;7300572;19;19922;-66
2023/12/22 02:45:15;;;;;;;;;;;;;;;12.37;94.89;100706.69;7292312;19;19919;-67
2023/12/22 02:47:42;;;;;;;;;;;;;;;12.32;95.18;100705.56;7290110;19;20552;-68
2023/12/22 02:50:09;;;;;;;;;;;;;;;12.28;95.64;100702.44;7307209;19;20039;-67
2023/12/22 02:52:36;;;;;;;;;;;;;;;12.22;95.91;100707.53;7290963;19;19918;-66
2023/12/22 02:55:03;;;;;;;;;;;;;;;12.23;96.52;100696.84;7295362;19;20173;-67
2023/12/22 02:57:30;;;;;;;;;;;;;;;12.17;96.83;100692.22;7305425;19;20019;-67
2023/12/22 02:59:58;;;;;;;;;;;;;;;12.16;96.67;100671.28;7299459;19;19923;-66
2023/12/22 03:02:26;;;;;;;;;;;;;;;12.12;96.67;100669.97;7297801;19;19926;-67
2023/12/22 03:04:53;;;;;;;;;;;;;;;12.12;97.69;100660.25;7284326;19;19922;-66
2023/12/22 03:07:20;;;;;;;;;;;;;;;12.04;96.94;100664.72;7304503;19;20693;-66
2023/12/22 03:09:47;;;;;;;;;;;;;;;12.02;97.19;100656.97;7306289;19;19997;-67
2023/12/22 03:12:14;;;;;;;;;;;;;;;12.03;97.88;100655.97;7292254;19;19915;-67
2023/12/22 03:14:41;;;;;;;;;;;;;;;12.01;98.27;100657.94;7300444;19;19919;-67
2023/12/22 03:17:08;;;;;;;;;;;;;;;12.00;98.47;100658.94;7294919;19;20370;-67
2023/12/22 03:19:35;;;;;;;;;;;;;;;12.00;98.60;100649.22;7283429;19;19930;-67
2023/12/22 03:22:01;;;;;;;;;;;;;;;11.90;98.32;100640.66;7280599;19;19945;-66
2023/12/22 03:24:29;;;;;;;;;;;;;;;11.94;98.58;100647.22;7296920;19;19933;-67
2023/12/22 03:26:56;;;;;;;;;;;;;;;11.95;98.91;100634.88;7306791;19;20031;-67
2023/12/22 03:29:23;;;;;;;;;;;;;;;11.96;98.46;100629.44;7289893;19;19923;-66
2023/12/22 03:31:49;;;;;;;;;;;;;;;11.99;98.45;100623.00;7300697;19;19923;-66
2023/12/22 03:34:16;;;;;;;;;;;;;;;12.04;99.51;100620.69;7289043;19;21952;-68
2023/12/22 03:36:48;;;;;;;;;;;;;;;12.08;98.72;100623.81;7304994;19;20719;-66
2023/12/22 03:39:16;;;;;;;;;;;;;;;12.06;97.58;100624.00;7304894;19;19930;-66
2023/12/22 03:41:43;;;;;;;;;;;;;;;12.03;96.77;100616.41;7288020;19;19947;-67
2023/12/22 03:44:10;;;;;;;;;;;;;;;12.02;97.07;100621.84;7302311;19;19926;-67
2023/12/22 03:46:37;;;;;;;;;;;;;;;12.04;97.32;100609.34;7303233;19;19918;-67
2023/12/22 03:49:03;;;;;;;;;;;;;;;12.03;97.08;100605.88;7303557;19;19922;-68
2023/12/22 03:51:31;;;;;;;;;;;;;;;12.05;96.86;100608.31;7299385;19;19922;-65
2023/12/22 03:53:58;;;;;;;;;;;;;;;12.05;96.65;100595.13;7284747;19;20002;-66
2023/12/22 03:56:24;;;;;;;;;;;;;;;12.04;96.47;100596.94;7281953;19;19926;-67
2023/12/22 03:58:51;;;;;;;;;;;;;;;12.05;96.28;100597.78;7299872;19;19933;-68
2023/12/22 04:01:18;;;;;;;;;;;;;;;12.05;96.24;100590.69;7293793;19;20661;-67
2023/12/22 04:03:46;;;;;;;;;;;;;;;12.06;96.14;100600.25;7306187;19;19922;-67
2023/12/22 04:06:15;;;;;;;;;;;;;;;12.10;96.02;100601.56;7290564;19;19923;-66
2023/12/22 04:08:42;;;;;;;;;;;;;;;12.13;96.21;100589.88;7296321;19;19918;-67
2023/12/22 04:11:09;;;;;;;;;;;;;;;12.14;95.69;100583.59;7291628;19;19926;-66
2023/12/22 04:13:36;;;;;;;;;;;;;;;12.16;95.13;100592.97;7303474;19;19935;-68
2023/12/22 04:16:05;;;;;;;;;;;;;;;12.22;95.28;100586.22;7293639;19;19919;-67
2023/12/22 04:18:32;;;;;;;;;;;;;;;12.24;95.36;100595.56;7297111;19;19919;-66
2023/12/22 04:20:59;;;;;;;;;;;;;;;12.27;95.13;100595.25;7291561;19;19919;-67
2023/12/22 04:23:26;;;;;;;;;;;;;;;12.29;95.30;100600.38;7292844;19;19926;-66
2023/12/22 04:25:53;;;;;;;;;;;;;;;12.34;96.15;100592.78;7294165;19;20459;-65
2023/12/22 04:28:20;;;;;;;;;;;;;;;12.35;95.98;100592.59;7295178;19;19911;-66
2023/12/22 04:30:46;;;;;;;;;;;;;;;12.32;95.59;100587.66;7284553;19;20027;-68
2023/12/22 04:33:15;;;;;;;;;;;;;;;12.32;95.75;100595.56;7276227;19;19926;-65
2023/12/22 04:35:44;;;;;;;;;;;;;;;12.35;95.43;100595.22;7296916;19;21181;-67
2023/12/22 04:38:11;;;;;;;;;;;;;;;12.30;95.86;100596.72;7293440;19;19929;-68
2023/12/22 04:40:38;;;;;;;;;;;;;;;12.35;96.11;100599.66;7302493;19;19926;-67
2023/12/22 04:43:05;;;;;;;;;;;;;;;12.33;95.93;100599.03;7295798;19;20427;-67
2023/12/22 04:45:31;;;;;;;;;;;;;;;12.35;95.98;100586.47;7306225;19;19933;-67
2023/12/22 04:47:58;;;;;;;;;;;;;;;12.39;96.47;100575.41;7286182;19;19923;-67
2023/12/22 04:50:25;;;;;;;;;;;;;;;12.41;96.22;100584.00;7276841;19;19922;-66
2023/12/22 04:52:52;;;;;;;;;;;;;;;12.41;95.87;100591.09;7298437;19;19955;-66
2023/12/22 04:55:22;;;;;;;;;;;;;;;12.41;96.10;100594.53;7298610;19;19937;-66
2023/12/22 04:57:49;;;;;;;;;;;;;;;12.44;95.93;100591.56;7297850;19;19914;-66
2023/12/22 05:00:16;;;;;;;;;;;;;;;12.45;95.61;100587.09;7300305;19;19919;-68
2023/12/22 05:02:43;;;;;;;;;;;;;;;12.47;95.55;100579.84;7294864;19;19986;-66
2023/12/22 05:05:11;;;;;;;;;;;;;;;12.46;95.63;100574.75;7293866;19;19930;-67
2023/12/22 05:07:40;;;;;;;;;;;;;;;12.48;95.41;100570.13;7305106;19;19914;-67
2023/12/22 05:10:07;;;;;;;;;;;;;;;12.50;95.17;100566.31;7293958;19;19922;-68
2023/12/22 05:12:34;;;;;;;;;;;;;;;12.52;95.20;100560.84;7289130;19;19925;-66
2023/12/22 05:15:01;;;;;;;;;;;;;;;12.51;94.78;100567.13;7287306;19;21081;-66
2023/12/22 05:17:28;;;;;;;;;;;;;;;12.53;94.38;100560.69;7285172;19;20918;-66
2023/12/22 05:19:55;;;;;;;;;;;;;;;12.53;94.63;100565.97;7298462;19;20006;-68
2023/12/22 05:22:22;;;;;;;;;;;;;;;12.53;94.40;100565.97;7305124;19;19918;-66
2023/12/22 05:24:48;;;;;;;;;;;;;;;12.52;94.15;100576.69;7301975;19;19961;-66
2023/12/22 05:27:15;;;;;;;;;;;;;;;12.49;94.18;100579.69;7277041;19;19926;-66
2023/12/22 05:29:42;;;;;;;;;;;;;;;12.48;93.82;100583.31;7292290;19;19923;-68
2023/12/22 05:32:09;;;;;;;;;;;;;;;12.52;93.84;100582.81;7285720;19;19918;-67
2023/12/22 05:34:36;;;;;;;;;;;;;;;12.57;94.55;100590.19;7306518;19;19983;-66
2023/12/22 05:37:03;;;;;;;;;;;;;;;12.58;93.78;100586.56;7315330;19;19933;-67
2023/12/22 05:39:30;;;;;;;;;;;;;;;12.59;93.94;100589.03;7317112;19;19929;-65
2023/12/22 05:42:01;;;;;;;;;;;;;;;12.63;94.49;100595.63;7287120;19;20022;-67
2023/12/22 05:44:30;;;;;;;;;;;;;;;12.68;94.94;100601.22;7296415;19;19933;-67
2023/12/22 05:46:57;;;;;;;;;;;;;;;12.65;95.54;100609.47;7299726;19;21652;-67
2023/12/22 05:49:25;;;;;;;;;;;;;;;12.66;96.19;100612.91;7282615;19;19919;-66
2023/12/22 05:51:52;;;;;;;;;;;;;;;12.65;97.47;100606.00;7281045;19;19930;-66
2023/12/22 05:54:20;;;;;;;;;;;;;;;12.64;98.40;100607.84;7286189;19;20303;-66
2023/12/22 05:56:47;;;;;;;;;;;;;;;12.59;98.52;100583.78;7293542;19;19933;-66
2023/12/22 05:59:13;;;;;;;;;;;;;;;12.58;99.09;100590.03;7286733;19;19934;-65
2023/12/22 06:01:40;;;;;;;;;;;;;;;12.58;99.42;100602.41;7299657;19;19919;-66
2023/12/22 06:04:07;;;;;;;;;;;;;;;12.55;99.74;100603.56;7291200;19;19922;-66
2023/12/22 06:06:34;;;;;;;;;;;;;;;12.54;99.77;100598.47;7289094;19;19973;-67
2023/12/22 06:09:01;;;;;;;;;;;;;;;12.55;100.00;100592.19;7287940;19;19918;-65
2023/12/22 06:11:27;;;;;;;;;;;;;;;12.56;100.00;100599.09;7285509;19;19919;-66
2023/12/22 06:13:54;;;;;;;;;;;;;;;12.53;100.00;100597.66;7301292;19;21576;-66
2023/12/22 06:16:21;;;;;;;;;;;;;;;12.51;100.00;100596.97;7288252;19;22587;-68
2023/12/22 06:18:48;;;;;;;;;;;;;;;12.51;100.00;100596.16;7287316;19;20295;-68
2023/12/22 06:21:15;;;;;;;;;;;;;;;12.49;100.00;100588.44;7284042;19;19919;-66
2023/12/22 06:23:42;;;;;;;;;;;;;;;12.46;100.00;100593.22;7300407;19;19926;-67
2023/12/22 06:26:12;;;;;;;;;;;;;;;12.45;100.00;100597.66;7294542;19;20509;-66
2023/12/22 06:28:39;;;;;;;;;;;;;;;12.44;100.00;100585.47;7295877;19;19923;-68
2023/12/22 06:31:08;;;;;;;;;;;;;;;12.42;100.00;100590.91;7283300;19;19927;-67
2023/12/22 06:33:35;;;;;;;;;;;;;;;12.42;100.00;100592.72;7294384;19;21231;-67
2023/12/22 06:36:02;;;;;;;;;;;;;;;12.43;100.00;100586.47;7289110;19;19922;-67
2023/12/22 06:38:30;;;;;;;;;;;;;;;12.40;100.00;100600.81;7286187;19;19923;-66
2023/12/22 06:40:57;;;;;;;;;;;;;;;12.39;100.00;100596.53;7298435;19;19915;-66
2023/12/22 06:43:24;;;;;;;;;;;;;;;12.37;100.00;100595.06;7281540;19;20406;-65
2023/12/22 06:45:54;;;;;;;;;;;;;;;12.39;100.00;100593.09;7293364;19;19927;-67
2023/12/22 06:48:21;;;;;;;;;;;;;;;12.38;100.00;100599.34;7289038;19;22508;-69
2023/12/22 06:50:49;;;;;;;;;;;;;;;12.41;100.00;100606.91;7291794;19;20316;-67
2023/12/22 06:53:16;;;;;;;;;;;;;;;12.41;100.00;100601.63;7289305;19;19919;-70
2023/12/22 06:55:51;;;;;;;;;;;;;;;12.41;100.00;100607.75;7294076;19;20474;-67
2023/12/22 06:58:21;;;;;;;;;;;;;;;12.37;100.00;100614.34;7300251;19;20352;-66
2023/12/22 07:00:48;;;;;;;;;;;;;;;12.40;100.00;100607.91;7295121;19;19927;-67
2023/12/22 07:03:16;;;;;;;;;;;;;;;12.37;100.00;100592.41;7284189;19;19930;-66
2023/12/22 07:05:44;;;;;;;;;;;;;;;12.36;100.00;100603.97;7285016;19;19934;-67
2023/12/22 07:08:11;;;;;;;;;;;;;;;12.36;100.00;100604.78;7291082;19;19938;-67
2023/12/22 07:10:38;;;;;;;;;;;;;;;12.39;100.00;100612.34;7278367;19;19985;-67
2023/12/22 07:13:07;;;;;;;;;;;;;;;12.42;100.00;100619.94;7279773;19;19923;-67
2023/12/22 07:15:34;;;;;;;;;;;;;;;12.42;99.76;100617.31;7295076;19;19933;-67
2023/12/22 07:18:01;;;;;;;;;;;;;;;12.44;99.43;100617.16;7282697;19;20674;-66
2023/12/22 07:20:29;;;;;;;;;;;;;;;12.45;98.04;100629.31;7300306;19;19929;-66
2023/12/22 07:22:56;;;;;;;;;;;;;;;12.51;98.25;100630.47;7293070;19;19918;-66
2023/12/22 07:25:25;;;;;;;;;;;;;;;12.53;98.27;100631.97;7306686;19;20913;-66
2023/12/22 07:27:56;;;;;;;;;;;;;;;12.56;97.57;100638.69;7293835;19;19943;-66
2023/12/22 07:30:23;;;;;;;;;;;;;;;12.60;97.52;100634.72;7300911;19;20021;-66
2023/12/22 07:32:52;;;;;;;;;;;;;;;12.61;97.37;100647.75;7295777;19;19915;-66
2023/12/22 07:35:22;;;;;;;;;;;;;;;12.62;97.27;100644.13;7286187;19;19947;-66
2023/12/22 07:37:49;;;;;;;;;;;;;;;12.58;97.14;100637.53;7296877;19;19994;-69
2023/12/22 07:40:17;;;;;;;;;;;;;;;12.60;97.63;100640.81;7295188;19;19948;-67
2023/12/22 07:42:44;;;;;;;;;;;;;;;12.61;98.21;100641.66;7309840;19;20763;-66
2023/12/22 07:45:11;;;;;;;;;;;;;;;12.63;98.49;100643.13;7300629;19;20520;-66
2023/12/22 07:47:38;;;;;;;;;;;;;;;12.61;98.39;100637.19;7303149;19;19938;-66
2023/12/22 07:50:08;;;;;;;;;;;;;;;12.62;98.93;100646.75;7297644;19;20537;-66
2023/12/22 07:52:39;;;;;;;;;;;;;;;12.64;98.44;100643.97;7297003;19;20573;-66
2023/12/22 07:55:11;;;;;;;;;;;;;;;12.65;98.24;100650.88;7307611;19;19934;-67
2023/12/22 07:57:38;;;;;;;;;;;;;;;12.62;97.13;100652.03;7312644;19;19926;-68
2023/12/22 08:00:06;;;;;;;;;;;;;;;12.62;97.10;100643.28;7291963;19;19930;-67
2023/12/22 08:02:33;;;;;;;;;;;;;;;12.64;97.43;100644.78;7294769;19;20311;-65
2023/12/22 08:05:00;;;;;;;;;;;;;;;12.61;97.40;100654.84;7294992;19;19919;-68
2023/12/22 08:07:27;;;;;;;;;;;;;;;12.62;97.22;100654.69;7296138;19;19915;-66
2023/12/22 08:09:54;;;;;;;;;;;;;;;12.61;96.81;100658.31;7295377;19;19949;-65
2023/12/22 08:12:23;;;;;;;;;;;;;;;12.58;95.35;100661.31;7291639;19;19926;-66
2023/12/22 08:14:51;;;;;;;;;;;;;;;12.61;95.19;100663.59;7303320;19;19918;-67
2023/12/22 08:17:18;;;;;;;;;;;;;;;12.59;93.86;100670.88;7298249;19;19978;-67
2023/12/22 08:19:45;;;;;;;;;;;;;;;12.59;93.24;100670.03;7296204;19;20695;-67
2023/12/22 08:22:14;;;;;;;;;;;;;;;12.59;92.64;100670.88;7288673;19;19926;-66
2023/12/22 08:24:43;;;;;;;;;;;;;;;12.63;92.15;100681.91;7309454;19;19922;-68
2023/12/22 08:27:10;;;;;;;;;;;;;;;12.66;91.13;100692.13;7299906;19;19953;-66
2023/12/22 08:29:37;;;;;;;;;;;;;;;12.69;91.10;100697.06;7304032;19;19923;-68
2023/12/22 08:32:06;;;;;;;;;;;;;;;12.69;91.11;100697.91;7302900;19;19925;-66
2023/12/22 08:34:37;;;;;;;;;;;;;;;12.75;91.33;100696.38;7294763;19;19915;-67
2023/12/22 08:37:04;;;;;;;;;;;;;;;12.78;89.26;100698.69;7302237;19;20074;-67
2023/12/22 08:39:31;;;;;;;;;;;;;;;12.82;89.10;100710.53;7294036;19;19983;-67
2023/12/22 08:41:58;;;;;;;;;;;;;;;12.85;89.03;100705.75;7294649;19;19926;-67
2023/12/22 08:44:25;;;;;;;;;;;;;;;12.91;88.25;100703.41;7298462;19;19929;-67
2023/12/22 08:46:52;;;;;;;;;;;;;;;12.95;87.64;100702.94;7294886;19;19952;-67
2023/12/22 08:49:21;;;;;;;;;;;;;;;12.96;87.42;100714.28;7291073;19;19951;-68
2023/12/22 08:51:48;;;;;;;;;;;;;;;13.01;87.72;100712.78;7291123;19;19927;-66
2023/12/22 08:54:15;;;;;;;;;;;;;;;13.04;87.21;100723.03;7299569;19;19923;-66
2023/12/22 08:56:42;;;;;;;;;;;;;;;13.06;86.91;100722.84;7298212;19;21240;-66
2023/12/22 08:59:10;;;;;;;;;;;;;;;13.06;86.11;100720.19;7295096;19;20776;-69
2023/12/22 09:01:37;;;;;;;;;;;;;;;13.09;86.03;100704.00;7297216;19;20026;-68
2023/12/22 09:04:04;;;;;;;;;;;;;;;13.12;86.02;100720.38;7296592;19;20367;-68
2023/12/22 09:06:33;;;;;;;;;;;;;;;13.17;86.02;100722.50;7299108;19;20574;-68
2023/12/22 09:09:00;;;;;;;;;;;;;;;13.17;85.56;100717.22;7296571;19;21220;-71
2023/12/22 09:11:27;;;;;;;;;;;;;;;13.18;85.68;100721.50;7290337;19;19938;-70
2023/12/22 09:13:55;;;;;;;;;;;;;;;13.18;85.92;100724.97;7301929;19;19931;-69
2023/12/22 09:16:23;;;;;;;;;;;;;;;13.19;85.17;100729.25;7281026;19;19968;-70
2023/12/22 09:18:51;;;;;;;;;;;;;;;13.21;85.51;100731.72;7295454;19;19925;-68
2023/12/22 09:21:18;;;;;;;;;;;;;;;13.20;85.63;100712.41;7280598;19;19927;-69
2023/12/22 09:23:47;;;;;;;;;;;;;;;13.25;86.84;100728.56;7288556;19;21016;-70
2023/12/22 09:26:27;;;;;;;;;;;;;;;13.27;85.96;100726.56;7294831;19;19990;-68
2023/12/22 09:28:55;;;;;;;;;;;;;;;13.25;85.18;100736.50;7299603;19;19926;-70
2023/12/22 09:31:22;;;;;;;;;;;;;;;13.27;85.25;100733.66;7287092;19;19914;-68
2023/12/22 09:33:49;;;;;;;;;;;;;;;13.30;85.85;100743.91;7292356;19;19945;-68
2023/12/22 09:36:16;;;;;;;;;;;;;;;13.27;85.28;100734.50;7295586;19;19919;-68
2023/12/22 09:38:44;;;;;;;;;;;;;;;13.31;84.62;100742.09;7303352;19;19930;-68
2023/12/22 09:41:10;;;;;;;;;;;;;;;13.33;83.71;100751.50;7293348;19;20010;-70
2023/12/22 09:43:39;;;;;;;;;;;;;;;13.32;84.11;100757.75;7300410;19;20002;-68
2023/12/22 09:46:11;;;;;;;;;;;;;;;13.33;83.63;100759.41;7296012;19;19911;-69
2023/12/22 09:48:40;;;;;;;;;;;;;;;13.34;83.57;100778.75;7291261;19;19927;-69
2023/12/22 09:51:08;;;;;;;;;;;;;;;13.34;83.54;100776.91;7284625;19;19930;-69
2023/12/22 09:53:38;;;;;;;;;;;;;;;13.36;83.84;100777.56;7303300;19;20229;-70
2023/12/22 09:56:06;;;;;;;;;;;;;;;13.40;83.41;100794.75;7287376;19;19942;-69
2023/12/22 09:58:36;;;;;;;;;;;;;;;13.37;82.60;100792.41;7305869;19;19922;-68
2023/12/22 10:01:05;;;;;;;;;;;;;;;13.37;82.52;100795.06;7292398;19;20749;-71
2023/12/22 10:03:36;;;;;;;;;;;;;;;13.34;82.52;100786.66;7289111;19;19925;-70
2023/12/22 10:06:04;;;;;;;;;;;;;;;13.40;81.85;100807.97;7301352;19;19945;-68
2023/12/22 10:08:32;;;;;;;;;;;;;;;13.38;82.55;100795.91;7288892;19;21362;-71
2023/12/22 10:10:59;;;;;;;;;;;;;;;13.40;82.85;100796.56;7295428;19;19919;-70
2023/12/22 10:13:28;;;;;;;;;;;;;;;13.39;82.86;100797.53;7306200;19;20464;-68
2023/12/22 10:15:56;;;;;;;;;;;;;;;13.41;83.26;100795.56;7292841;19;19918;-70
2023/12/22 10:18:24;;;;;;;;;;;;;;;13.44;82.05;100809.25;7295591;19;19919;-69
2023/12/22 10:20:51;;;;;;;;;;;;;;;13.48;82.52;100804.44;7302149;19;19926;-69
2023/12/22 10:23:19;;;;;;;;;;;;;;;13.50;81.42;100805.09;7292676;19;20927;-68
2023/12/22 10:25:47;;;;;;;;;;;;;;;13.51;81.72;100796.97;7278069;19;19922;-69
2023/12/22 10:28:15;;;;;;;;;;;;;;;13.51;81.36;100799.63;7284578;19;19957;-69
2023/12/22 10:30:45;;;;;;;;;;;;;;;13.51;81.06;100804.91;7280863;19;19930;-69
2023/12/22 10:33:13;;;;;;;;;;;;;;;13.54;80.64;100791.38;7288833;19;19994;-68
2023/12/22 10:35:41;;;;;;;;;;;;;;;13.61;80.71;100794.16;7288084;19;21275;-68
2023/12/22 10:38:09;;;;;;;;;;;;;;;13.61;80.66;100797.59;7281949;19;19922;-67
2023/12/22 10:40:37;;;;;;;;;;;;;;;13.64;80.38;100788.50;7281144;19;19961;-69
2023/12/22 10:43:06;;;;;;;;;;;;;;;13.64;80.12;100788.50;7289846;19;19927;-69
2023/12/22 10:45:33;;;;;;;;;;;;;;;13.67;79.74;100796.06;7288892;19;19919;-70
2023/12/22 10:48:01;;;;;;;;;;;;;;;13.69;80.11;100796.75;7296638;19;21101;-69
2023/12/22 10:50:29;;;;;;;;;;;;;;;13.74;79.17;100806.78;7290922;19;20391;-67
2023/12/22 10:52:56;;;;;;;;;;;;;;;13.74;79.12;100807.63;7299566;19;20164;-69
2023/12/22 10:55:30;;;;;;;;;;;;;;;13.76;78.89;100799.53;7279005;19;19987;-69
2023/12/22 10:58:05;;;;;;;;;;;;;;;13.73;78.48;100798.03;7291299;19;19927;-69
2023/12/22 11:00:33;;;;;;;;;;;;;;;13.74;77.74;100804.97;7281866;19;19919;-70
2023/12/22 11:03:06;;;;;;;;;;;;;;;13.78;78.22;100813.38;7291135;19;19927;-69
2023/12/22 11:05:39;;;;;;;;;;;;;;;13.78;77.92;100806.25;7292045;19;22928;-68
2023/12/22 11:08:11;;;;;;;;;;;;;;;13.80;77.74;100811.38;7301518;19;19994;-70
2023/12/22 11:10:43;;;;;;;;;;;;;;;13.83;78.26;100809.22;7301707;19;20754;-68
2023/12/22 11:13:13;;;;;;;;;;;;;;;13.85;78.14;100815.16;7281093;19;20253;-71
2023/12/22 11:15:43;;;;;;;;;;;;;;;13.86;77.25;100814.16;7294212;19;20854;-69
2023/12/22 11:18:10;;;;;;;;;;;;;;;13.84;76.73;100800.28;7291928;19;19927;-70
2023/12/22 11:20:38;;;;;;;;;;;;;;;13.83;76.60;100819.78;7297755;19;19922;-69
2023/12/22 11:23:06;;;;;;;;;;;;;;;13.84;76.47;100810.03;7293388;19;19929;-68
2023/12/22 11:25:35;;;;;;;;;;;;;;;13.84;76.65;100813.50;7290804;19;20462;-68
2023/12/22 11:28:06;;;;;;;;;;;;;;;13.83;76.76;100809.22;7290107;19;20496;-68
2023/12/22 11:30:38;;;;;;;;;;;;;;;13.87;76.86;100814.97;7286969;19;20993;-69
2023/12/22 11:33:06;;;;;;;;;;;;;;;13.88;76.78;100809.50;7289088;19;19959;-69
2023/12/22 11:35:34;;;;;;;;;;;;;;;13.89;76.17;100805.88;7293802;19;19947;-68
2023/12/22 11:38:03;;;;;;;;;;;;;;;13.90;76.40;100791.66;7296062;19;20388;-68
2023/12/22 11:40:30;;;;;;;;;;;;;;;13.89;77.13;100805.88;7303449;19;20029;-70
2023/12/22 11:43:00;;;;;;;;;;;;;;;13.87;75.71;100804.38;7293190;19;19934;-70
2023/12/22 11:45:30;;;;;;;;;;;;;;;13.88;75.48;100809.50;7300793;19;20539;-69
2023/12/22 11:48:05;;;;;;;;;;;;;;;13.89;75.23;100800.59;7299211;19;20176;-70
2023/12/22 11:50:32;;;;;;;;;;;;;;;13.90;75.18;100812.00;7308286;19;20280;-69
2023/12/22 11:53:19;;;;;;;;;;;;;;;13.92;75.26;100809.97;7297493;19;19923;-72
2023/12/22 11:56:01;;;;;;;;;;;;;;;13.91;74.31;100789.84;7295302;19;20595;-68
2023/12/22 11:58:39;;;;;;;;;;;;;;;13.89;74.86;100808.53;7302852;19;20271;-69
2023/12/22 12:01:07;;;;;;;;;;;;;;;13.94;76.08;100803.53;7297214;19;19953;-68
2023/12/22 12:03:38;;;;;;;;;;;;;;;13.97;74.35;100808.47;7296713;19;19945;-68
2023/12/22 12:06:12;;;;;;;;;;;;;;;13.99;74.89;100797.72;7289958;19;21290;-69
2023/12/22 12:08:41;;;;;;;;;;;;;;;14.04;75.03;100790.91;7296697;19;22295;-70
2023/12/22 12:11:08;;;;;;;;;;;;;;;14.04;75.11;100801.47;7299698;19;19974;-70
2023/12/22 12:13:40;;;;;;;;;;;;;;;14.06;74.99;100801.31;7287489;19;19917;-69
2023/12/22 12:16:08;;;;;;;;;;;;;;;14.06;75.80;100790.72;7294620;19;19922;-67
2023/12/22 12:18:34;;;;;;;;;;;;;;;14.06;75.28;100796.03;7293917;19;20391;-70
2023/12/22 12:21:01;;;;;;;;;;;;;;;13.99;74.49;100801.19;7300117;19;19919;-69
2023/12/22 12:23:29;;;;;;;;;;;;;;;13.97;74.36;100789.94;7299133;19;20002;-71
2023/12/22 12:25:58;;;;;;;;;;;;;;;14.00;73.93;100786.97;7287843;19;19930;-68
2023/12/22 12:28:27;;;;;;;;;;;;;;;14.02;74.52;100789.41;7297713;19;20469;-70
2023/12/22 12:31:02;;;;;;;;;;;;;;;14.01;74.83;100783.31;7308658;19;19915;-69
2023/12/22 12:33:30;;;;;;;;;;;;;;;14.00;74.05;100792.25;7293944;19;19930;-69
2023/12/22 12:35:59;;;;;;;;;;;;;;;13.98;73.81;100791.59;7293624;19;19927;-69
2023/12/22 12:38:36;;;;;;;;;;;;;;;13.98;74.19;100790.75;7285175;19;19938;-69
2023/12/22 12:41:07;;;;;;;;;;;;;;;13.93;73.00;100786.00;7297313;19;19926;-70